sensor_id;sensor_type;location;lat;lon;timestamp;pressure;altitude;pressure_sealevel;temperature;humidity
7834;BME280;3962;42.696;23.354;2023-02-11T00:02:58;96864.53;;;-1.98;68.97
7834;BME280;3962;42.696;23.354;2023-02-11T00:05:40;96870.75;;;-2.03;68.67
7834;BME280;3962;42.696;23.354;2023-02-11T00:08:11;96868.13;;;-2.03;68.38
7834;BME280;3962;42.696;23.354;2023-02-11T00:10:41;96864.50;;;-1.96;68.21
7834;BME280;3962;42.696;23.354;2023-02-11T00:13:10;96861.88;;;-1.95;68.23
7834;BME280;3962;42.696;23.354;2023-02-11T00:15:55;96875.13;;;-2.05;69.06
7834;BME280;3962;42.696;23.354;2023-02-11T00:18:26;96870.00;;;-2.08;68.23
7834;BME280;3962;42.696;23.354;2023-02-11T00:21:06;96866.59;;;-2.12;68.12
7834;BME280;3962;42.696;23.354;2023-02-11T00:26:35;96860.78;;;-2.24;68.14
7834;BME280;3962;42.696;23.354;2023-02-11T00:29:14;96853.94;;;-2.28;68.09
7834;BME280;3962;42.696;23.354;2023-02-11T00:31:51;96850.31;;;-2.23;67.81
7834;BME280;3962;42.696;23.354;2023-02-11T00:34:35;96859.50;;;-2.05;67.45
7834;BME280;3962;42.696;23.354;2023-02-11T00:37:02;96862.22;;;-2.10;67.23
7834;BME280;3962;42.696;23.354;2023-02-11T00:39:30;96859.28;;;-1.96;66.81
7834;BME280;3962;42.696;23.354;2023-02-11T00:41:56;96855.91;;;-2.01;67.16
7834;BME280;3962;42.696;23.354;2023-02-11T00:50:44;96849.88;;;-2.03;66.22
7834;BME280;3962;42.696;23.354;2023-02-11T00:53:11;96850.19;;;-2.17;66.87
7834;BME280;3962;42.696;23.354;2023-02-11T00:55:45;96847.66;;;-2.20;66.43
7834;BME280;3962;42.696;23.354;2023-02-11T01:01:44;96848.41;;;-2.15;66.58
7834;BME280;3962;42.696;23.354;2023-02-11T01:04:18;96849.50;;;-2.23;66.16
7834;BME280;3962;42.696;23.354;2023-02-11T01:06:46;96847.81;;;-2.27;66.45
7834;BME280;3962;42.696;23.354;2023-02-11T01:09:15;96846.34;;;-2.40;66.81
7834;BME280;3962;42.696;23.354;2023-02-11T01:11:41;96846.41;;;-2.42;66.99
7834;BME280;3962;42.696;23.354;2023-02-11T01:14:12;96846.53;;;-2.48;67.07
7834;BME280;3962;42.696;23.354;2023-02-11T01:16:39;96837.69;;;-2.41;67.18
7834;BME280;3962;42.696;23.354;2023-02-11T01:19:11;96851.31;;;-2.28;67.07
7834;BME280;3962;42.696;23.354;2023-02-11T01:21:48;96843.50;;;-2.28;67.20
7834;BME280;3962;42.696;23.354;2023-02-11T01:24:15;96841.25;;;-2.45;66.58
7834;BME280;3962;42.696;23.354;2023-02-11T01:26:43;96841.34;;;-2.49;66.67
7834;BME280;3962;42.696;23.354;2023-02-11T01:29:18;96844.75;;;-2.46;66.35
7834;BME280;3962;42.696;23.354;2023-02-11T01:31:51;96832.84;;;-2.57;66.74
7834;BME280;3962;42.696;23.354;2023-02-11T01:34:46;96830.22;;;-2.57;66.98
7834;BME280;3962;42.696;23.354;2023-02-11T01:37:22;96834.22;;;-2.81;67.46
7834;BME280;3962;42.696;23.354;2023-02-11T01:39:49;96826.00;;;-3.04;68.15
7834;BME280;3962;42.696;23.354;2023-02-11T01:42:19;96835.53;;;-3.04;68.36
7834;BME280;3962;42.696;23.354;2023-02-11T01:44:51;96832.00;;;-2.99;68.49
7834;BME280;3962;42.696;23.354;2023-02-11T01:47:26;96827.78;;;-3.06;69.10
7834;BME280;3962;42.696;23.354;2023-02-11T01:49:58;96828.72;;;-3.11;68.67
7834;BME280;3962;42.696;23.354;2023-02-11T01:52:40;96825.50;;;-3.24;68.85
7834;BME280;3962;42.696;23.354;2023-02-11T01:55:17;96831.69;;;-3.29;69.53
7834;BME280;3962;42.696;23.354;2023-02-11T01:58:04;96827.28;;;-3.24;69.76
7834;BME280;3962;42.696;23.354;2023-02-11T02:00:41;96830.88;;;-3.31;69.56
7834;BME280;3962;42.696;23.354;2023-02-11T02:03:14;96831.06;;;-3.42;70.65
7834;BME280;3962;42.696;23.354;2023-02-11T02:05:48;96819.91;;;-3.48;70.50
7834;BME280;3962;42.696;23.354;2023-02-11T02:08:32;96826.81;;;-3.47;70.47
7834;BME280;3962;42.696;23.354;2023-02-11T02:11:01;96827.63;;;-3.44;70.52
7834;BME280;3962;42.696;23.354;2023-02-11T02:13:34;96828.53;;;-3.45;70.58
7834;BME280;3962;42.696;23.354;2023-02-11T02:16:03;96828.75;;;-3.58;70.89
7834;BME280;3962;42.696;23.354;2023-02-11T02:18:39;96830.75;;;-3.73;71.55
7834;BME280;3962;42.696;23.354;2023-02-11T02:24:40;96833.94;;;-3.58;71.00
7834;BME280;3962;42.696;23.354;2023-02-11T02:27:22;96820.94;;;-3.58;71.08
7834;BME280;3962;42.696;23.354;2023-02-11T02:30:27;96825.31;;;-3.58;70.78
7834;BME280;3962;42.696;23.354;2023-02-11T02:33:23;96829.69;;;-3.60;70.69
7834;BME280;3962;42.696;23.354;2023-02-11T02:36:07;96828.00;;;-3.66;70.76
7834;BME280;3962;42.696;23.354;2023-02-11T02:42:15;96830.00;;;-3.80;71.41
7834;BME280;3962;42.696;23.354;2023-02-11T02:44:47;96822.22;;;-3.80;71.69
7834;BME280;3962;42.696;23.354;2023-02-11T02:47:14;96832.47;;;-3.72;71.62
7834;BME280;3962;42.696;23.354;2023-02-11T02:49:45;96829.19;;;-3.83;71.65
7834;BME280;3962;42.696;23.354;2023-02-11T02:52:28;96815.41;;;-3.88;72.07
7834;BME280;3962;42.696;23.354;2023-02-11T02:55:24;96825.88;;;-3.91;71.65
7834;BME280;3962;42.696;23.354;2023-02-11T02:58:34;96831.31;;;-4.08;71.98
7834;BME280;3962;42.696;23.354;2023-02-11T03:01:20;96834.16;;;-4.23;72.27
7834;BME280;3962;42.696;23.354;2023-02-11T03:04:04;96834.22;;;-4.26;72.43
7834;BME280;3962;42.696;23.354;2023-02-11T03:06:39;96837.63;;;-4.24;72.64
7834;BME280;3962;42.696;23.354;2023-02-11T03:09:20;96841.19;;;-4.29;72.09
7834;BME280;3962;42.696;23.354;2023-02-11T03:11:50;96834.31;;;-4.33;72.12
7834;BME280;3962;42.696;23.354;2023-02-11T03:14:25;96832.50;;;-4.27;72.46
7834;BME280;3962;42.696;23.354;2023-02-11T03:16:55;96828.06;;;-4.22;71.91
7834;BME280;3962;42.696;23.354;2023-02-11T03:19:25;96827.22;;;-4.22;72.03
7834;BME280;3962;42.696;23.354;2023-02-11T03:21:57;96829.91;;;-4.27;71.59
7834;BME280;3962;42.696;23.354;2023-02-11T03:24:33;96828.28;;;-4.35;72.60
7834;BME280;3962;42.696;23.354;2023-02-11T03:27:16;96832.56;;;-4.33;71.97
7834;BME280;3962;42.696;23.354;2023-02-11T03:29:49;96825.66;;;-4.32;72.69
7834;BME280;3962;42.696;23.354;2023-02-11T03:32:23;96832.50;;;-4.27;72.12
7834;BME280;3962;42.696;23.354;2023-02-11T03:35:24;96836.88;;;-4.32;72.18
7834;BME280;3962;42.696;23.354;2023-02-11T03:38:00;96826.50;;;-4.32;72.36
7834;BME280;3962;42.696;23.354;2023-02-11T03:40:42;96830.88;;;-4.34;72.33
7834;BME280;3962;42.696;23.354;2023-02-11T03:43:17;96823.81;;;-4.26;73.02
7834;BME280;3962;42.696;23.354;2023-02-11T03:45:46;96818.50;;;-4.18;73.03
7834;BME280;3962;42.696;23.354;2023-02-11T03:51:45;96817.28;;;-3.96;72.13
7834;BME280;3962;42.696;23.354;2023-02-11T03:54:22;96815.50;;;-3.94;71.73
7834;BME280;3962;42.696;23.354;2023-02-11T03:57:00;96821.50;;;-3.89;71.76
7834;BME280;3962;42.696;23.354;2023-02-11T03:59:28;96819.94;;;-3.99;70.77
7834;BME280;3962;42.696;23.354;2023-02-11T04:01:57;96823.66;;;-4.15;70.77
7834;BME280;3962;42.696;23.354;2023-02-11T04:04:35;96828.34;;;-4.41;71.40
7834;BME280;3962;42.696;23.354;2023-02-11T04:07:02;96831.22;;;-4.61;72.16
7834;BME280;3962;42.696;23.354;2023-02-11T04:12:54;96822.78;;;-4.76;72.96
7834;BME280;3962;42.696;23.354;2023-02-11T04:15:21;96804.00;;;-4.93;73.03
7834;BME280;3962;42.696;23.354;2023-02-11T04:17:50;96823.81;;;-4.88;73.33
7834;BME280;3962;42.696;23.354;2023-02-11T04:20:18;96823.91;;;-4.95;73.57
7834;BME280;3962;42.696;23.354;2023-02-11T04:22:46;96827.34;;;-4.95;73.28
7834;BME280;3962;42.696;23.354;2023-02-11T04:28:37;96824.94;;;-5.10;73.88
7834;BME280;3962;42.696;23.354;2023-02-11T04:31:19;96815.41;;;-5.08;74.99
7834;BME280;3962;42.696;23.354;2023-02-11T04:33:45;96819.78;;;-5.11;74.53
7834;BME280;3962;42.696;23.354;2023-02-11T04:36:14;96821.56;;;-5.18;74.00
7834;BME280;3962;42.696;23.354;2023-02-11T04:38:42;96822.53;;;-5.25;74.47
7834;BME280;3962;42.696;23.354;2023-02-11T04:41:10;96817.44;;;-5.31;74.67
7834;BME280;3962;42.696;23.354;2023-02-11T04:43:39;96813.13;;;-5.35;74.56
7834;BME280;3962;42.696;23.354;2023-02-11T04:46:09;96812.31;;;-5.40;74.92
7834;BME280;3962;42.696;23.354;2023-02-11T04:49:03;96810.53;;;-5.33;74.87
7834;BME280;3962;42.696;23.354;2023-02-11T04:51:31;96814.84;;;-5.32;75.05
7834;BME280;3962;42.696;23.354;2023-02-11T04:54:08;96818.31;;;-5.36;74.36
7834;BME280;3962;42.696;23.354;2023-02-11T04:56:39;96814.97;;;-5.44;74.03
7834;BME280;3962;42.696;23.354;2023-02-11T04:59:14;96807.22;;;-5.46;74.82
7834;BME280;3962;42.696;23.354;2023-02-11T05:01:56;96807.25;;;-5.50;74.33
7834;BME280;3962;42.696;23.354;2023-02-11T05:04:23;96808.16;;;-5.56;74.55
7834;BME280;3962;42.696;23.354;2023-02-11T05:06:50;96802.09;;;-5.52;75.35
7834;BME280;3962;42.696;23.354;2023-02-11T05:09:16;96809.75;;;-5.43;75.48
7834;BME280;3962;42.696;23.354;2023-02-11T05:11:43;96808.06;;;-5.47;75.06
7834;BME280;3962;42.696;23.354;2023-02-11T05:14:10;96806.41;;;-5.52;74.72
7834;BME280;3962;42.696;23.354;2023-02-11T05:16:39;96811.59;;;-5.52;75.23
7834;BME280;3962;42.696;23.354;2023-02-11T05:19:05;96803.84;;;-5.55;74.65
7834;BME280;3962;42.696;23.354;2023-02-11T05:21:32;96809.84;;;-5.50;74.53
7834;BME280;3962;42.696;23.354;2023-02-11T05:23:59;96812.41;;;-5.49;75.07
7834;BME280;3962;42.696;23.354;2023-02-11T05:26:26;96815.88;;;-5.48;74.89
7834;BME280;3962;42.696;23.354;2023-02-11T05:28:53;96807.34;;;-5.59;74.85
7834;BME280;3962;42.696;23.354;2023-02-11T05:31:20;96794.41;;;-5.64;75.11
7834;BME280;3962;42.696;23.354;2023-02-11T05:33:48;96799.66;;;-5.68;74.35
7834;BME280;3962;42.696;23.354;2023-02-11T05:36:15;96806.53;;;-5.64;74.99
7834;BME280;3962;42.696;23.354;2023-02-11T05:38:42;96802.13;;;-5.56;74.93
7834;BME280;3962;42.696;23.354;2023-02-11T05:41:10;96810.75;;;-5.53;74.81
7834;BME280;3962;42.696;23.354;2023-02-11T05:43:37;96799.53;;;-5.56;74.77
7834;BME280;3962;42.696;23.354;2023-02-11T05:46:04;96801.31;;;-5.60;75.33
7834;BME280;3962;42.696;23.354;2023-02-11T05:48:31;96809.97;;;-5.62;75.05
7834;BME280;3962;42.696;23.354;2023-02-11T05:50:59;96815.16;;;-5.62;75.69
7834;BME280;3962;42.696;23.354;2023-02-11T05:53:26;96810.81;;;-5.59;75.43
7834;BME280;3962;42.696;23.354;2023-02-11T05:55:53;96812.47;;;-5.52;75.39
7834;BME280;3962;42.696;23.354;2023-02-11T05:58:19;96815.03;;;-5.50;75.06
7834;BME280;3962;42.696;23.354;2023-02-11T06:00:46;96814.97;;;-5.44;74.61
7834;BME280;3962;42.696;23.354;2023-02-11T06:03:13;96817.44;;;-5.32;75.21
7834;BME280;3962;42.696;23.354;2023-02-11T06:05:41;96817.44;;;-5.32;74.62
7834;BME280;3962;42.696;23.354;2023-02-11T06:08:10;96816.72;;;-5.45;74.80
7834;BME280;3962;42.696;23.354;2023-02-11T06:10:37;96822.63;;;-5.34;74.94
7834;BME280;3962;42.696;23.354;2023-02-11T06:13:06;96819.09;;;-5.25;75.12
7834;BME280;3962;42.696;23.354;2023-02-11T06:15:33;96816.50;;;-5.28;74.93
7834;BME280;3962;42.696;23.354;2023-02-11T06:18:00;96824.94;;;-5.10;74.84
7834;BME280;3962;42.696;23.354;2023-02-11T06:20:27;96824.97;;;-5.11;74.63
7834;BME280;3962;42.696;23.354;2023-02-11T06:22:54;96830.00;;;-4.99;74.76
7834;BME280;3962;42.696;23.354;2023-02-11T06:25:22;96824.69;;;-4.89;74.69
7834;BME280;3962;42.696;23.354;2023-02-11T06:27:54;96814.19;;;-4.78;74.43
7834;BME280;3962;42.696;23.354;2023-02-11T06:30:22;96827.72;;;-4.58;74.17
7834;BME280;3962;42.696;23.354;2023-02-11T06:32:49;96824.31;;;-4.59;73.84
7834;BME280;3962;42.696;23.354;2023-02-11T06:35:15;96823.28;;;-4.50;73.60
7834;BME280;3962;42.696;23.354;2023-02-11T06:37:43;96825.75;;;-4.40;73.19
7834;BME280;3962;42.696;23.354;2023-02-11T06:40:10;96824.84;;;-4.37;72.65
7834;BME280;3962;42.696;23.354;2023-02-11T06:42:38;96834.50;;;-4.45;72.79
7834;BME280;3962;42.696;23.354;2023-02-11T06:45:06;96835.31;;;-4.42;72.15
7834;BME280;3962;42.696;23.354;2023-02-11T06:47:35;96841.25;;;-4.34;71.83
7834;BME280;3962;42.696;23.354;2023-02-11T06:50:02;96834.31;;;-4.33;72.12
7834;BME280;3962;42.696;23.354;2023-02-11T06:52:30;96836.91;;;-4.33;71.75
7834;BME280;3962;42.696;23.354;2023-02-11T06:54:56;96835.25;;;-4.37;71.87
7834;BME280;3962;42.696;23.354;2023-02-11T06:57:31;96831.16;;;-4.56;72.57
7834;BME280;3962;42.696;23.354;2023-02-11T06:59:59;96844.75;;;-4.35;72.36
7834;BME280;3962;42.696;23.354;2023-02-11T07:02:26;96837.84;;;-4.37;71.92
7834;BME280;3962;42.696;23.354;2023-02-11T07:04:53;96825.00;;;-4.48;72.30
7834;BME280;3962;42.696;23.354;2023-02-11T07:07:20;96837.78;;;-4.33;72.00
7834;BME280;3962;42.696;23.354;2023-02-11T07:09:47;96829.31;;;-4.48;72.82
7834;BME280;3962;42.696;23.354;2023-02-11T07:12:14;96829.97;;;-4.33;72.78
7834;BME280;3962;42.696;23.354;2023-02-11T07:14:41;96821.00;;;-4.12;72.21
7834;BME280;3962;42.696;23.354;2023-02-11T07:17:09;96819.78;;;-3.92;72.27
7834;BME280;3962;42.696;23.354;2023-02-11T07:19:36;96824.91;;;-3.87;72.08
7834;BME280;3962;42.696;23.354;2023-02-11T07:22:03;96819.28;;;-4.13;71.50
7834;BME280;3962;42.696;23.354;2023-02-11T07:24:30;96816.34;;;-3.92;71.70
7834;BME280;3962;42.696;23.354;2023-02-11T07:26:57;96815.09;;;-1.67;86.91
7834;BME280;3962;42.696;23.354;2023-02-11T07:29:24;96816.16;;;-1.41;80.83
7834;BME280;3962;42.696;23.354;2023-02-11T07:31:50;96813.31;;;-1.00;82.88
7834;BME280;3962;42.696;23.354;2023-02-11T07:34:19;96811.16;;;-0.55;73.73
7834;BME280;3962;42.696;23.354;2023-02-11T07:36:45;96805.31;;;-1.26;69.69
7834;BME280;3962;42.696;23.354;2023-02-11T07:39:13;96805.88;;;-1.82;67.91
7834;BME280;3962;42.696;23.354;2023-02-11T07:41:40;96805.91;;;-2.18;67.16
7834;BME280;3962;42.696;23.354;2023-02-11T07:44:07;96800.69;;;-2.18;67.61
7834;BME280;3962;42.696;23.354;2023-02-11T07:46:34;96798.31;;;-2.29;67.54
7834;BME280;3962;42.696;23.354;2023-02-11T07:49:01;96795.72;;;-2.29;67.45
7834;BME280;3962;42.696;23.354;2023-02-11T07:51:30;96806.31;;;-2.36;67.60
7834;BME280;3962;42.696;23.354;2023-02-11T07:53:58;96799.75;;;-2.52;68.77
7834;BME280;3962;42.696;23.354;2023-02-11T07:56:25;96802.03;;;-2.39;68.59
7834;BME280;3962;42.696;23.354;2023-02-11T07:58:53;96798.59;;;-2.39;68.11
7834;BME280;3962;42.696;23.354;2023-02-11T08:01:22;96794.25;;;-2.40;68.24
7834;BME280;3962;42.696;23.354;2023-02-11T08:03:53;96792.19;;;-2.26;68.17
7834;BME280;3962;42.696;23.354;2023-02-11T08:06:22;96789.34;;;-2.17;67.85
7834;BME280;3962;42.696;23.354;2023-02-11T08:08:50;96795.09;;;-2.38;68.26
7834;BME280;3962;42.696;23.354;2023-02-11T08:11:19;96792.06;;;-2.22;67.75
7834;BME280;3962;42.696;23.354;2023-02-11T08:13:47;96788.06;;;-2.00;67.97
7834;BME280;3962;42.696;23.354;2023-02-11T08:16:18;96779.59;;;-1.73;66.62
7834;BME280;3962;42.696;23.354;2023-02-11T08:18:45;96783.81;;;-1.69;66.26
7834;BME280;3962;42.696;23.354;2023-02-11T08:21:18;96787.84;;;-1.56;66.00
7834;BME280;3962;42.696;23.354;2023-02-11T08:23:46;96784.38;;;-1.56;65.59
7834;BME280;3962;42.696;23.354;2023-02-11T08:26:17;96768.25;;;-1.72;66.88
7834;BME280;3962;42.696;23.354;2023-02-11T08:28:47;96775.84;;;-1.63;66.40
7834;BME280;3962;42.696;23.354;2023-02-11T08:31:16;96767.81;;;-1.55;65.83
7834;BME280;3962;42.696;23.354;2023-02-11T08:33:43;96778.59;;;-1.35;66.39
7834;BME280;3962;42.696;23.354;2023-02-11T08:36:11;96785.19;;;-0.32;63.71
7834;BME280;3962;42.696;23.354;2023-02-11T08:38:39;96783.13;;;1.05;61.53
7834;BME280;3962;42.696;23.354;2023-02-11T08:41:06;96772.81;;;2.14;55.62
7834;BME280;3962;42.696;23.354;2023-02-11T08:43:35;96782.84;;;3.28;53.62
7834;BME280;3962;42.696;23.354;2023-02-11T08:46:06;96776.84;;;4.53;51.16
7834;BME280;3962;42.696;23.354;2023-02-11T08:48:33;96775.31;;;5.17;48.72
7834;BME280;3962;42.696;23.354;2023-02-11T08:51:05;96775.13;;;4.52;48.16
7834;BME280;3962;42.696;23.354;2023-02-11T08:53:32;96777.97;;;3.39;51.39
7834;BME280;3962;42.696;23.354;2023-02-11T08:55:59;96774.84;;;3.67;51.34
7834;BME280;3962;42.696;23.354;2023-02-11T08:58:26;96776.78;;;4.01;50.63
7834;BME280;3962;42.696;23.354;2023-02-11T09:00:54;96781.91;;;4.04;49.76
7834;BME280;3962;42.696;23.354;2023-02-11T09:03:21;96782.97;;;4.00;49.15
7834;BME280;3962;42.696;23.354;2023-02-11T09:05:48;96764.53;;;4.18;48.79
7834;BME280;3962;42.696;23.354;2023-02-11T09:08:18;96772.72;;;4.12;48.97
7834;BME280;3962;42.696;23.354;2023-02-11T09:10:45;96763.84;;;5.01;47.57
7834;BME280;3962;42.696;23.354;2023-02-11T09:13:12;96772.78;;;5.16;46.71
7834;BME280;3962;42.696;23.354;2023-02-11T09:15:39;96768.25;;;5.18;47.84
7834;BME280;3962;42.696;23.354;2023-02-11T09:18:07;96763.25;;;5.29;47.08
7834;BME280;3962;42.696;23.354;2023-02-11T09:20:34;96770.91;;;5.18;46.78
7834;BME280;3962;42.696;23.354;2023-02-11T09:23:01;96764.13;;;4.61;48.37
7834;BME280;3962;42.696;23.354;2023-02-11T09:25:28;96760.28;;;4.33;47.89
7834;BME280;3962;42.696;23.354;2023-02-11T09:27:54;96756.22;;;4.61;48.97
7834;BME280;3962;42.696;23.354;2023-02-11T09:30:21;96757.00;;;5.14;47.49
7834;BME280;3962;42.696;23.354;2023-02-11T09:32:48;96748.94;;;5.17;47.44
7834;BME280;3962;42.696;23.354;2023-02-11T09:35:17;96751.25;;;4.55;47.85
7834;BME280;3962;42.696;23.354;2023-02-11T09:37:43;96740.50;;;4.24;47.65
7834;BME280;3962;42.696;23.354;2023-02-11T09:40:11;96745.66;;;4.27;47.69
7834;BME280;3962;42.696;23.354;2023-02-11T09:42:45;96737.81;;;4.26;47.84
7834;BME280;3962;42.696;23.354;2023-02-11T09:45:17;96729.22;;;4.04;47.34
7834;BME280;3962;42.696;23.354;2023-02-11T09:47:51;96722.00;;;3.90;47.58
7834;BME280;3962;42.696;23.354;2023-02-11T09:50:27;96723.63;;;3.38;48.66
7834;BME280;3962;42.696;23.354;2023-02-11T09:52:57;96721.91;;;3.18;48.60
7834;BME280;3962;42.696;23.354;2023-02-11T09:55:28;96716.88;;;3.32;48.69
7834;BME280;3962;42.696;23.354;2023-02-11T09:57:56;96698.63;;;3.47;47.73
7834;BME280;3962;42.696;23.354;2023-02-11T10:00:26;96710.19;;;3.43;47.67
7834;BME280;3962;42.696;23.354;2023-02-11T10:03:06;96688.31;;;3.97;47.44
7834;BME280;3962;42.696;23.354;2023-02-11T10:05:52;96694.41;;;4.16;46.87
7834;BME280;3962;42.696;23.354;2023-02-11T10:08:32;96692.69;;;3.98;46.43
7834;BME280;3962;42.696;23.354;2023-02-11T10:11:06;96691.75;;;3.99;46.38
7834;BME280;3962;42.696;23.354;2023-02-11T10:13:47;96680.16;;;3.84;45.95
7834;BME280;3962;42.696;23.354;2023-02-11T10:16:32;96675.00;;;3.64;46.32
7834;BME280;3962;42.696;23.354;2023-02-11T10:19:15;96664.75;;;3.58;46.99
7834;BME280;3962;42.696;23.354;2023-02-11T10:21:54;96650.19;;;3.87;47.29
7834;BME280;3962;42.696;23.354;2023-02-11T10:24:25;96644.22;;;3.83;46.58
7834;BME280;3962;42.696;23.354;2023-02-11T10:26:55;96645.69;;;3.72;46.07
7834;BME280;3962;42.696;23.354;2023-02-11T10:29:33;96636.53;;;4.14;45.85
7834;BME280;3962;42.696;23.354;2023-02-11T10:32:04;96631.25;;;4.14;45.68
7834;BME280;3962;42.696;23.354;2023-02-11T10:34:32;96625.00;;;4.34;45.05
7834;BME280;3962;42.696;23.354;2023-02-11T10:37:08;96615.41;;;4.16;44.28
7834;BME280;3962;42.696;23.354;2023-02-11T10:39:34;96603.69;;;4.04;44.45
7834;BME280;3962;42.696;23.354;2023-02-11T10:42:06;96594.25;;;3.65;45.26
7834;BME280;3962;42.696;23.354;2023-02-11T10:44:37;96596.81;;;3.66;44.80
7834;BME280;3962;42.696;23.354;2023-02-11T10:47:10;96583.38;;;3.37;44.73
7834;BME280;3962;42.696;23.354;2023-02-11T10:49:40;96586.78;;;3.74;44.65
7834;BME280;3962;42.696;23.354;2023-02-11T10:52:19;96576.81;;;3.98;44.09
7834;BME280;3962;42.696;23.354;2023-02-11T10:54:59;96580.94;;;4.03;45.16
7834;BME280;3962;42.696;23.354;2023-02-11T10:57:29;96572.38;;;3.98;44.80
7834;BME280;3962;42.696;23.354;2023-02-11T11:00:00;96561.09;;;3.79;44.09
7834;BME280;3962;42.696;23.354;2023-02-11T11:02:29;96565.41;;;3.80;44.35
7834;BME280;3962;42.696;23.354;2023-02-11T11:05:02;96562.38;;;3.88;43.58
7834;BME280;3962;42.696;23.354;2023-02-11T11:07:33;96560.94;;;3.82;44.54
7834;BME280;3962;42.696;23.354;2023-02-11T11:10:04;96558.75;;;4.07;44.39
7834;BME280;3962;42.696;23.354;2023-02-11T11:12:34;96551.31;;;4.15;43.97
7834;BME280;3962;42.696;23.354;2023-02-11T11:15:17;96553.13;;;3.98;43.97
7834;BME280;3962;42.696;23.354;2023-02-11T11:17:46;96531.59;;;3.90;44.64
7834;BME280;3962;42.696;23.354;2023-02-11T11:20:19;96537.16;;;4.01;43.83
7834;BME280;3962;42.696;23.354;2023-02-11T11:22:48;96541.25;;;3.89;44.58
7834;BME280;3962;42.696;23.354;2023-02-11T11:25:23;96533.88;;;3.45;45.06
7834;BME280;3962;42.696;23.354;2023-02-11T11:27:53;96536.59;;;3.77;45.15
7834;BME280;3962;42.696;23.354;2023-02-11T11:30:23;96531.19;;;3.63;45.39
7834;BME280;3962;42.696;23.354;2023-02-11T11:32:52;96532.44;;;3.73;44.00
7834;BME280;3962;42.696;23.354;2023-02-11T11:35:26;96534.44;;;3.68;44.18
7834;BME280;3962;42.696;23.354;2023-02-11T11:37:57;96539.09;;;3.80;44.27
7834;BME280;3962;42.696;23.354;2023-02-11T11:40:26;96527.81;;;3.78;44.01
7834;BME280;3962;42.696;23.354;2023-02-11T11:43:08;96527.22;;;3.89;43.02
7834;BME280;3962;42.696;23.354;2023-02-11T11:45:52;96518.50;;;3.71;42.70
7834;BME280;3962;42.696;23.354;2023-02-11T11:48:23;96520.22;;;3.72;43.29
7834;BME280;3962;42.696;23.354;2023-02-11T11:50:53;96517.88;;;3.66;44.59
7834;BME280;3962;42.696;23.354;2023-02-11T11:53:28;96515.63;;;3.93;45.46
7834;BME280;3962;42.696;23.354;2023-02-11T11:56:01;96506.88;;;3.92;44.34
7834;BME280;3962;42.696;23.354;2023-02-11T11:58:30;96503.56;;;4.06;44.48
7834;BME280;3962;42.696;23.354;2023-02-11T12:01:06;96497.25;;;4.25;44.33
7834;BME280;3962;42.696;23.354;2023-02-11T12:07:01;96468.53;;;4.21;43.82
7834;BME280;3962;42.696;23.354;2023-02-11T12:09:40;96484.09;;;4.25;44.33
7834;BME280;3962;42.696;23.354;2023-02-11T12:12:29;96471.53;;;4.13;44.29
7834;BME280;3962;42.696;23.354;2023-02-11T12:15:10;96467.84;;;4.17;43.83
7834;BME280;3962;42.696;23.354;2023-02-11T12:17:51;96461.50;;;4.37;42.87
7834;BME280;3962;42.696;23.354;2023-02-11T12:20:28;96460.41;;;4.41;42.25
7834;BME280;3962;42.696;23.354;2023-02-11T12:23:13;96441.44;;;4.34;42.89
7834;BME280;3962;42.696;23.354;2023-02-11T12:25:50;96453.09;;;4.46;42.43
7834;BME280;3962;42.696;23.354;2023-02-11T12:28:30;96444.59;;;4.41;41.46
7834;BME280;3962;42.696;23.354;2023-02-11T12:31:18;96443.84;;;4.54;42.60
7834;BME280;3962;42.696;23.354;2023-02-11T12:34:04;96440.13;;;4.89;41.61
7834;BME280;3962;42.696;23.354;2023-02-11T12:36:44;96434.75;;;5.06;40.40
7834;BME280;3962;42.696;23.354;2023-02-11T12:39:26;96431.78;;;4.66;40.83
7834;BME280;3962;42.696;23.354;2023-02-11T12:42:27;96429.88;;;4.68;41.18
7834;BME280;3962;42.696;23.354;2023-02-11T12:45:28;96423.78;;;4.83;41.20
7834;BME280;3962;42.696;23.354;2023-02-11T12:48:08;96421.91;;;5.00;41.46
7834;BME280;3962;42.696;23.354;2023-02-11T12:50:45;96419.81;;;5.36;40.06
7834;BME280;3962;42.696;23.354;2023-02-11T12:53:35;96406.00;;;5.47;38.49
7834;BME280;3962;42.696;23.354;2023-02-11T12:56:13;96417.13;;;5.22;39.50
7834;BME280;3962;42.696;23.354;2023-02-11T12:58:42;96408.19;;;5.39;41.08
7834;BME280;3962;42.696;23.354;2023-02-11T13:01:16;96411.84;;;5.52;39.86
7834;BME280;3962;42.696;23.354;2023-02-11T13:03:47;96412.81;;;5.65;39.71
7834;BME280;3962;42.696;23.354;2023-02-11T13:06:17;96408.91;;;5.56;41.11
7834;BME280;3962;42.696;23.354;2023-02-11T13:08:47;96418.19;;;5.63;40.47
7834;BME280;3962;42.696;23.354;2023-02-11T13:11:19;96409.44;;;5.63;41.11
7834;BME280;3962;42.696;23.354;2023-02-11T13:13:52;96406.13;;;5.59;41.85
7834;BME280;3962;42.696;23.354;2023-02-11T13:16:29;96406.41;;;5.69;40.28
7834;BME280;3962;42.696;23.354;2023-02-11T13:19:02;96394.38;;;5.79;38.79
7834;BME280;3962;42.696;23.354;2023-02-11T13:21:40;96391.97;;;6.04;39.78
7834;BME280;3962;42.696;23.354;2023-02-11T13:24:20;96389.34;;;6.18;40.08
7834;BME280;3962;42.696;23.354;2023-02-11T13:26:54;96385.94;;;6.44;39.54
7834;BME280;3962;42.696;23.354;2023-02-11T13:29:38;96390.94;;;6.34;38.33
7834;BME280;3962;42.696;23.354;2023-02-11T13:32:10;96382.91;;;5.80;38.14
7834;BME280;3962;42.696;23.354;2023-02-11T13:35:01;96379.31;;;6.09;39.76
7834;BME280;3962;42.696;23.354;2023-02-11T13:37:31;96389.03;;;6.50;38.06
7834;BME280;3962;42.696;23.354;2023-02-11T13:40:04;96377.75;;;6.75;37.52
7834;BME280;3962;42.696;23.354;2023-02-11T13:42:33;96380.28;;;6.22;38.29
7834;BME280;3962;42.696;23.354;2023-02-11T13:45:26;96376.88;;;5.92;37.31
7834;BME280;3962;42.696;23.354;2023-02-11T13:47:56;96371.22;;;5.98;36.81
7834;BME280;3962;42.696;23.354;2023-02-11T13:50:24;96370.38;;;6.39;37.39
7834;BME280;3962;42.696;23.354;2023-02-11T13:52:57;96371.69;;;6.46;37.07
7834;BME280;3962;42.696;23.354;2023-02-11T13:55:25;96374.31;;;6.87;37.36
7834;BME280;3962;42.696;23.354;2023-02-11T13:58:18;96361.28;;;6.43;36.33
7834;BME280;3962;42.696;23.354;2023-02-11T14:00:59;96354.22;;;6.30;37.07
7834;BME280;3962;42.696;23.354;2023-02-11T14:03:31;96354.78;;;5.93;37.53
7834;BME280;3962;42.696;23.354;2023-02-11T14:06:19;96359.03;;;5.81;38.80
7834;BME280;3962;42.696;23.354;2023-02-11T14:09:35;96342.44;;;5.93;38.06
7834;BME280;3962;42.696;23.354;2023-02-11T14:12:21;96345.84;;;6.23;37.52
7834;BME280;3962;42.696;23.354;2023-02-11T14:14:59;96349.97;;;6.41;38.00
7834;BME280;3962;42.696;23.354;2023-02-11T14:17:31;96346.94;;;6.33;37.91
7834;BME280;3962;42.696;23.354;2023-02-11T14:20:00;96350.34;;;6.35;37.80